createdAt,value
2022-09-16T00:00:42.300Z,16.20
2022-09-16T00:02:15.100Z,16.20
2022-09-16T00:03:48.598Z,16.20
2022-09-16T00:05:21.193Z,16.20
2022-09-16T00:06:53.878Z,16.20
2022-09-16T00:08:27.045Z,16.20
2022-09-16T00:09:59.720Z,16.20
2022-09-16T00:11:34.682Z,16.20
2022-09-16T00:13:07.630Z,16.20
2022-09-16T00:14:40.498Z,16.20
2022-09-16T00:16:17.782Z,16.10
2022-09-16T00:17:50.508Z,16.10
2022-09-16T00:19:23.712Z,16.10
2022-09-16T00:20:56.393Z,16.10
2022-09-16T00:22:28.548Z,16.10
2022-09-16T00:24:02.894Z,16.00
2022-09-16T00:25:35.586Z,16.00
2022-09-16T00:27:08.291Z,16.10
2022-09-16T00:28:41.321Z,16.00
2022-09-16T00:30:14.085Z,16.00
2022-09-16T00:31:46.829Z,16.00
2022-09-16T00:33:19.562Z,16.00
2022-09-16T00:34:52.285Z,16.00
2022-09-16T00:36:25.109Z,16.00
2022-09-16T00:37:57.775Z,16.00
2022-09-16T00:39:31.922Z,15.90
2022-09-16T00:41:06.030Z,15.90
2022-09-16T00:42:39.995Z,16.00
2022-09-16T00:44:46.132Z,16.00
2022-09-16T00:46:21.513Z,15.90
2022-09-16T00:47:55.965Z,16.00
2022-09-16T00:49:31.964Z,15.90
2022-09-16T00:51:09.235Z,15.90
2022-09-16T00:52:42.624Z,15.90
2022-09-16T00:54:16.732Z,15.90
2022-09-16T00:55:52.419Z,15.90
2022-09-16T00:57:25.152Z,15.90
2022-09-16T00:59:04.012Z,15.80
2022-09-16T01:00:36.930Z,15.80
2022-09-16T01:02:13.151Z,15.80
2022-09-16T01:03:49.777Z,15.80
2022-09-16T01:05:25.767Z,15.80
2022-09-16T01:06:58.880Z,15.80
2022-09-16T01:08:31.718Z,15.80
2022-09-16T01:10:04.743Z,15.70
2022-09-16T01:11:38.817Z,15.80
2022-09-16T01:13:13.630Z,15.70
2022-09-16T01:14:54.474Z,15.70
2022-09-16T01:16:32.242Z,15.70
2022-09-16T01:18:15.369Z,15.70
2022-09-16T01:20:06.380Z,15.60
2022-09-16T01:21:46.298Z,15.60
2022-09-16T01:23:52.028Z,15.60
2022-09-16T01:25:39.841Z,15.60
2022-09-16T01:27:41.094Z,15.60
2022-09-16T01:29:32.389Z,15.50
2022-09-16T01:31:15.601Z,15.50
2022-09-16T01:32:57.545Z,15.50
2022-09-16T01:34:39.497Z,15.50
2022-09-16T01:36:25.217Z,15.50
2022-09-16T01:38:10.109Z,15.50
2022-09-16T01:39:49.916Z,15.60
2022-09-16T01:41:34.070Z,15.50
2022-09-16T01:43:17.550Z,15.50
2022-09-16T01:44:57.396Z,15.50
2022-09-16T01:46:39.208Z,15.50
2022-09-16T01:48:20.425Z,15.50
2022-09-16T01:50:01.890Z,15.50
2022-09-16T01:51:42.196Z,15.50
2022-09-16T01:53:20.145Z,15.50
2022-09-16T01:54:58.136Z,15.50
2022-09-16T01:56:38.209Z,15.50
2022-09-16T01:58:18.467Z,15.50
2022-09-16T01:59:56.316Z,15.50
2022-09-16T02:01:35.485Z,15.50
2022-09-16T02:03:11.805Z,15.50
2022-09-16T02:04:47.784Z,15.50
2022-09-16T02:06:23.903Z,15.50
2022-09-16T02:08:00.153Z,15.50
2022-09-16T02:09:37.468Z,15.50
2022-09-16T02:11:13.255Z,15.50
2022-09-16T02:12:47.926Z,15.50
2022-09-16T02:14:23.897Z,15.50
2022-09-16T02:16:02.786Z,15.50
2022-09-16T02:17:42.636Z,15.50
2022-09-16T02:19:19.310Z,15.50
2022-09-16T02:20:56.147Z,15.50
2022-09-16T02:22:32.254Z,15.50
2022-09-16T02:24:09.573Z,15.50
2022-09-16T02:25:44.682Z,15.50
2022-09-16T02:27:20.529Z,15.50
2022-09-16T02:28:56.029Z,15.50
2022-09-16T02:30:28.860Z,15.50
2022-09-16T02:32:06.098Z,15.60
2022-09-16T02:33:47.793Z,15.60
2022-09-16T02:35:21.568Z,15.60
2022-09-16T02:36:57.740Z,15.60
2022-09-16T02:38:34.011Z,15.60
2022-09-16T02:40:11.953Z,15.70
2022-09-16T02:41:45.007Z,15.70
2022-09-16T02:43:17.076Z,15.70
2022-09-16T02:44:49.871Z,15.60
2022-09-16T02:46:28.432Z,15.70
2022-09-16T02:48:05.832Z,15.60
2022-09-16T02:49:44.266Z,15.60
2022-09-16T02:51:25.719Z,15.60
2022-09-16T02:53:03.042Z,15.60
2022-09-16T02:54:40.491Z,15.60
2022-09-16T02:56:21.980Z,15.60
2022-09-16T02:57:54.728Z,15.60
2022-09-16T02:59:27.521Z,15.60
2022-09-16T03:00:59.507Z,15.60
2022-09-16T03:02:33.911Z,15.70
2022-09-16T03:04:06.307Z,15.60
2022-09-16T03:06:07.458Z,15.60
2022-09-16T03:07:42.163Z,15.60
2022-09-16T03:09:16.605Z,15.60
2022-09-16T03:10:48.446Z,15.50
2022-09-16T03:12:32.062Z,15.50
2022-09-16T03:14:43.350Z,15.50
2022-09-16T03:16:23.773Z,15.50
2022-09-16T03:18:13.178Z,15.50
2022-09-16T03:19:57.705Z,15.40
2022-09-16T03:21:41.233Z,15.40
2022-09-16T03:23:23.917Z,15.40
2022-09-16T03:25:06.238Z,15.40
2022-09-16T03:26:48.790Z,15.30
2022-09-16T03:28:26.557Z,15.30
2022-09-16T03:30:05.701Z,15.30
2022-09-16T03:31:44.128Z,15.30
2022-09-16T03:33:23.276Z,15.30
2022-09-16T03:35:01.888Z,15.30
2022-09-16T03:36:41.032Z,15.40
2022-09-16T03:38:15.352Z,15.40
2022-09-16T03:39:53.339Z,15.40
2022-09-16T03:41:28.720Z,15.40
2022-09-16T03:43:01.512Z,15.40
2022-09-16T03:44:35.185Z,15.40
2022-09-16T03:46:11.621Z,15.40
2022-09-16T03:47:45.165Z,15.40
2022-09-16T03:49:18.328Z,15.40
2022-09-16T03:50:51.034Z,15.40
2022-09-16T03:52:25.085Z,15.50
2022-09-16T03:53:57.761Z,15.50
2022-09-16T03:55:30.439Z,15.50
2022-09-16T03:57:03.326Z,15.50
2022-09-16T03:58:36.026Z,15.50
2022-09-16T04:00:10.481Z,15.50
2022-09-16T04:01:43.519Z,15.50
2022-09-16T04:03:16.294Z,15.50
2022-09-16T04:04:48.977Z,15.50
2022-09-16T04:06:20.687Z,15.50
2022-09-16T04:07:54.696Z,15.50
2022-09-16T04:09:27.350Z,15.50
2022-09-16T04:11:01.185Z,15.50
2022-09-16T04:12:33.927Z,15.50
2022-09-16T04:14:07.193Z,15.50
2022-09-16T04:15:39.923Z,15.50
2022-09-16T04:17:12.612Z,15.50
2022-09-16T04:18:45.296Z,15.50
2022-09-16T04:20:18.453Z,15.50
2022-09-16T04:21:50.181Z,15.50
2022-09-16T04:23:24.557Z,15.50
2022-09-16T04:24:57.477Z,15.50
2022-09-16T04:26:30.180Z,15.50
2022-09-16T04:28:03.226Z,15.50
2022-09-16T04:29:35.894Z,15.50
2022-09-16T04:31:11.769Z,15.50
2022-09-16T04:32:44.499Z,15.50
2022-09-16T04:34:17.359Z,15.50
2022-09-16T04:35:50.038Z,15.40
2022-09-16T04:37:22.843Z,15.40
2022-09-16T04:38:56.882Z,15.40
2022-09-16T04:40:28.696Z,15.40
2022-09-16T04:42:01.935Z,15.50
2022-09-16T04:43:35.189Z,15.50
2022-09-16T04:45:08.883Z,15.40
2022-09-16T04:46:41.629Z,15.40
2022-09-16T04:48:14.372Z,15.40
2022-09-16T04:49:47.071Z,15.50
2022-09-16T04:51:20.549Z,15.50
2022-09-16T04:52:53.488Z,15.50
2022-09-16T04:54:27.765Z,15.50
2022-09-16T04:56:05.878Z,15.50
2022-09-16T04:57:38.544Z,15.50
2022-09-16T04:59:11.365Z,15.40
2022-09-16T05:00:44.036Z,15.40
2022-09-16T05:02:16.730Z,15.40
2022-09-16T05:03:51.205Z,15.40
2022-09-16T05:05:23.922Z,15.40
2022-09-16T05:06:56.608Z,15.40
2022-09-16T05:08:28.332Z,15.50
2022-09-16T05:10:02.333Z,15.40
2022-09-16T05:11:37.562Z,15.40
2022-09-16T05:13:09.285Z,15.40
2022-09-16T05:14:41.966Z,15.30
2022-09-16T05:16:15.700Z,15.30
2022-09-16T05:17:51.126Z,15.30
2022-09-16T05:19:24.157Z,15.30
2022-09-16T05:20:58.454Z,15.30
2022-09-16T05:22:31.167Z,15.30
2022-09-16T05:24:05.119Z,15.30
2022-09-16T05:25:39.125Z,15.30
2022-09-16T05:27:11.798Z,15.30
2022-09-16T05:28:44.514Z,15.20
2022-09-16T05:30:17.513Z,15.20
2022-09-16T05:31:50.610Z,15.20
2022-09-16T05:33:23.277Z,15.10
2022-09-16T05:34:56.187Z,15.10
2022-09-16T05:36:30.557Z,15.10
2022-09-16T05:38:03.245Z,15.10
2022-09-16T05:39:35.929Z,15.10
2022-09-16T05:41:10.356Z,15.10
2022-09-16T05:42:43.034Z,15.20
2022-09-16T05:44:16.197Z,15.10
2022-09-16T05:45:52.810Z,15.10
2022-09-16T05:47:26.785Z,15.10
2022-09-16T05:48:58.569Z,15.10
2022-09-16T05:50:31.247Z,15.10
2022-09-16T05:52:04.051Z,15.10
2022-09-16T05:53:36.722Z,15.10
2022-09-16T05:55:09.960Z,15.00
2022-09-16T05:56:44.020Z,15.10
2022-09-16T05:58:16.698Z,15.10
2022-09-16T05:59:49.356Z,15.10
2022-09-16T06:01:23.978Z,15.10
2022-09-16T06:02:56.769Z,15.10
2022-09-16T06:04:29.498Z,15.10
2022-09-16T06:06:02.747Z,15.00
2022-09-16T06:07:35.426Z,15.00
2022-09-16T06:09:10.058Z,15.10
2022-09-16T06:10:43.216Z,15.10
2022-09-16T06:12:17.317Z,15.10
2022-09-16T06:13:55.536Z,15.20
2022-09-16T06:15:28.210Z,15.20
2022-09-16T06:17:00.910Z,15.20
2022-09-16T06:18:33.131Z,15.20
2022-09-16T06:20:07.588Z,15.20
2022-09-16T06:21:41.063Z,15.30
2022-09-16T06:23:14.178Z,15.30
2022-09-16T06:24:46.872Z,15.30
2022-09-16T06:26:22.115Z,15.30
2022-09-16T06:27:56.120Z,15.40
2022-09-16T06:29:28.806Z,15.40
2022-09-16T06:31:07.133Z,15.40
2022-09-16T06:32:39.870Z,15.40
2022-09-16T06:34:15.728Z,15.40
2022-09-16T06:35:48.394Z,15.40
2022-09-16T06:37:21.142Z,15.40
2022-09-16T06:38:53.893Z,15.40
2022-09-16T06:40:27.123Z,15.50
2022-09-16T06:41:59.855Z,15.50
2022-09-16T06:43:34.106Z,15.50
2022-09-16T06:45:07.880Z,15.50
2022-09-16T06:46:40.972Z,15.60
2022-09-16T06:48:13.658Z,15.60
2022-09-16T06:49:46.812Z,15.60
2022-09-16T06:51:22.685Z,15.70
2022-09-16T06:52:55.391Z,15.70
2022-09-16T06:54:28.124Z,15.70
2022-09-16T06:56:01.991Z,15.80
2022-09-16T06:57:34.782Z,15.90
2022-09-16T06:59:09.525Z,16.00
2022-09-16T07:00:43.012Z,16.00
2022-09-16T07:02:16.432Z,16.00
2022-09-16T07:03:51.046Z,16.10
2022-09-16T07:05:23.740Z,16.10
2022-09-16T07:07:09.076Z,16.10
2022-09-16T07:08:43.116Z,16.20
2022-09-16T07:10:16.026Z,16.20
2022-09-16T07:11:48.751Z,16.30
2022-09-16T07:13:21.450Z,16.30
2022-09-16T07:14:55.482Z,16.40
2022-09-16T07:16:28.253Z,16.40
2022-09-16T07:18:01.005Z,16.50
2022-09-16T07:19:33.693Z,16.50
2022-09-16T07:21:07.574Z,16.60
2022-09-16T07:22:40.683Z,16.60
2022-09-16T07:24:14.908Z,16.70
2022-09-16T07:25:47.568Z,16.80
2022-09-16T07:27:20.237Z,16.90
2022-09-16T07:28:54.083Z,16.90
2022-09-16T07:30:30.088Z,17.00
2022-09-16T07:32:03.287Z,17.00
2022-09-16T07:33:37.953Z,17.00
2022-09-16T07:35:10.628Z,17.10
2022-09-16T07:36:45.332Z,17.10
2022-09-16T07:38:18.063Z,17.20
2022-09-16T07:39:50.830Z,17.20
2022-09-16T07:41:25.532Z,17.30
2022-09-16T07:42:58.975Z,17.40
2022-09-16T07:44:31.706Z,17.40
2022-09-16T07:46:05.982Z,17.50
2022-09-16T07:47:38.735Z,17.50
2022-09-16T07:49:15.386Z,17.50
2022-09-16T07:50:55.816Z,17.60
2022-09-16T07:52:29.685Z,17.60
2022-09-16T07:54:05.188Z,17.70
2022-09-16T07:55:37.930Z,17.80
2022-09-16T07:57:10.652Z,17.80
2022-09-16T07:58:44.791Z,17.90
2022-09-16T08:00:17.726Z,18.00
2022-09-16T08:01:52.074Z,18.00
2022-09-16T08:03:24.953Z,18.10
2022-09-16T08:04:57.637Z,18.10
2022-09-16T08:06:32.315Z,18.20
2022-09-16T08:08:05.242Z,18.40
2022-09-16T08:09:41.048Z,18.60
2022-09-16T08:11:23.336Z,18.70
2022-09-16T08:12:56.127Z,18.90
2022-09-16T08:14:28.885Z,19.10
2022-09-16T08:16:04.010Z,19.30
2022-09-16T08:17:38.024Z,19.50
2022-09-16T08:19:10.844Z,19.60
2022-09-16T08:20:43.528Z,19.60
2022-09-16T08:22:16.256Z,19.50
2022-09-16T08:23:49.241Z,19.40
2022-09-16T08:25:21.941Z,19.40
2022-09-16T08:28:40.136Z,19.30
2022-09-16T08:30:25.364Z,19.40
2022-09-16T08:31:58.328Z,19.50
2022-09-16T08:33:32.856Z,19.70
2022-09-16T08:35:06.492Z,19.90
2022-09-16T08:36:39.181Z,20.10
2022-09-16T08:38:13.173Z,20.40
2022-09-16T08:39:47.609Z,20.60
2022-09-16T08:41:31.100Z,20.70
2022-09-16T08:43:14.359Z,20.70
2022-09-16T08:45:00.244Z,20.80
2022-09-16T08:46:39.946Z,20.90
2022-09-16T08:48:28.557Z,21.10
2022-09-16T08:50:06.353Z,21.30
2022-09-16T08:51:39.317Z,21.50
2022-09-16T08:53:16.212Z,21.60
2022-09-16T08:54:52.989Z,21.70
2022-09-16T08:56:29.357Z,21.90
2022-09-16T08:58:05.940Z,22.00
2022-09-16T08:59:44.147Z,22.10
2022-09-16T09:01:22.574Z,22.30
2022-09-16T09:02:58.315Z,22.40
2022-09-16T09:04:31.614Z,22.50
2022-09-16T09:06:15.545Z,22.50
2022-09-16T09:08:04.467Z,22.30
2022-09-16T09:09:57.419Z,22.10
2022-09-16T09:11:39.376Z,21.80
2022-09-16T09:13:22.880Z,21.70
2022-09-16T09:15:07.044Z,21.80
2022-09-16T09:16:47.694Z,21.90
2022-09-16T09:18:32.822Z,21.90
2022-09-16T09:20:17.734Z,22.00
2022-09-16T09:22:04.918Z,22.30
2022-09-16T09:24:03.699Z,22.40
2022-09-16T09:25:45.709Z,22.60
2022-09-16T09:27:27.167Z,22.70
2022-09-16T09:29:22.033Z,22.90
2022-09-16T09:31:06.339Z,23.00
2022-09-16T09:32:56.704Z,23.10
2022-09-16T09:34:43.473Z,23.10
2022-09-16T09:36:47.005Z,23.10
2022-09-16T09:38:51.588Z,23.20
2022-09-16T09:40:32.823Z,23.20
2022-09-16T09:42:16.305Z,23.00
2022-09-16T09:43:53.120Z,22.80
2022-09-16T09:45:30.875Z,22.60
2022-09-16T09:47:09.418Z,22.70
2022-09-16T09:48:47.715Z,22.60
2022-09-16T09:50:26.905Z,22.70
2022-09-16T09:52:03.199Z,22.80
2022-09-16T09:53:42.180Z,22.80
2022-09-16T09:55:18.646Z,22.90
2022-09-16T09:56:54.085Z,23.00
2022-09-16T09:58:34.828Z,23.00
2022-09-16T10:00:16.856Z,22.80
2022-09-16T10:01:54.953Z,22.70
2022-09-16T10:03:29.146Z,22.50
2022-09-16T10:05:02.102Z,22.50
2022-09-16T10:06:36.139Z,22.40
2022-09-16T10:08:16.777Z,22.30
2022-09-16T10:09:55.459Z,22.20
2022-09-16T10:11:31.397Z,22.00
2022-09-16T10:13:11.253Z,21.90
2022-09-16T10:14:47.981Z,21.80
2022-09-16T10:16:22.534Z,21.70
2022-09-16T10:17:57.329Z,21.60
2022-09-16T10:19:31.172Z,21.50
2022-09-16T10:21:11.387Z,21.40
2022-09-16T10:22:56.439Z,21.40
2022-09-16T10:24:32.760Z,21.20
2022-09-16T10:26:21.647Z,21.10
2022-09-16T10:28:00.078Z,21.00
2022-09-16T10:29:32.774Z,20.80
2022-09-16T10:31:08.514Z,20.60
2022-09-16T10:32:56.596Z,20.40
2022-09-16T10:34:34.583Z,20.30
2022-09-16T10:36:09.582Z,20.20
2022-09-16T10:37:52.925Z,20.10
2022-09-16T10:39:27.695Z,20.00
2022-09-16T10:41:08.056Z,19.90
2022-09-16T10:42:40.939Z,19.80
2022-09-16T10:44:17.449Z,19.70
2022-09-16T10:45:52.817Z,19.60
2022-09-16T10:47:28.424Z,19.50
2022-09-16T10:49:09.876Z,19.40
2022-09-16T10:50:53.377Z,19.40
2022-09-16T10:52:28.436Z,19.30
2022-09-16T10:54:02.708Z,19.30
2022-09-16T10:55:37.805Z,19.30
2022-09-16T10:57:25.242Z,19.30
2022-09-16T10:59:06.581Z,19.30
2022-09-16T11:00:49.061Z,19.30
2022-09-16T11:02:33.924Z,19.30
2022-09-16T11:04:25.107Z,19.40
2022-09-16T11:06:10.527Z,19.40
2022-09-16T11:07:51.465Z,19.40
2022-09-16T11:09:32.222Z,19.40
2022-09-16T11:11:14.387Z,19.40
2022-09-16T11:13:08.604Z,19.40
2022-09-16T11:14:53.000Z,19.40
2022-09-16T11:16:47.911Z,19.30
2022-09-16T11:18:32.727Z,19.30
2022-09-16T11:20:33.722Z,19.20
2022-09-16T11:22:18.060Z,19.30
2022-09-16T11:24:08.117Z,19.20
2022-09-16T11:25:50.965Z,19.20
2022-09-16T11:27:37.541Z,19.20
2022-09-16T11:29:40.525Z,19.10
2022-09-16T11:31:20.674Z,19.10
2022-09-16T11:33:20.254Z,19.00
2022-09-16T11:35:17.438Z,19.00
2022-09-16T11:37:03.511Z,19.00
2022-09-16T11:38:43.999Z,19.00
2022-09-16T11:40:29.944Z,18.90
2022-09-16T11:42:12.562Z,18.80
2022-09-16T11:44:11.601Z,18.80
2022-09-16T11:45:52.189Z,18.70
2022-09-16T11:47:44.754Z,18.70
2022-09-16T11:49:32.727Z,18.60
2022-09-16T11:51:12.570Z,18.60
2022-09-16T11:53:04.297Z,18.60
2022-09-16T11:54:54.424Z,18.70
2022-09-16T11:56:36.070Z,18.70
2022-09-16T11:58:20.547Z,18.70
2022-09-16T11:59:58.989Z,18.80
2022-09-16T12:01:40.503Z,18.80
2022-09-16T12:03:24.068Z,18.90
2022-09-16T12:05:04.071Z,19.00
2022-09-16T12:06:41.750Z,19.10
2022-09-16T12:08:23.597Z,19.30
2022-09-16T12:10:00.999Z,19.30
2022-09-16T12:11:38.175Z,19.40
2022-09-16T12:13:15.396Z,19.40
2022-09-16T12:14:54.719Z,19.40
2022-09-16T12:16:35.741Z,19.40
2022-09-16T12:18:14.058Z,19.40
2022-09-16T12:19:51.916Z,19.30
2022-09-16T12:21:28.871Z,19.20
2022-09-16T12:23:07.565Z,19.20
2022-09-16T12:24:44.180Z,19.10
2022-09-16T12:26:20.971Z,19.20
2022-09-16T12:27:58.320Z,19.10
2022-09-16T12:29:39.521Z,19.10
2022-09-16T12:31:23.082Z,19.10
2022-09-16T12:33:02.283Z,19.10
2022-09-16T12:34:40.187Z,19.10
2022-09-16T12:36:19.142Z,19.20
2022-09-16T12:37:55.356Z,19.20
2022-09-16T12:39:28.735Z,19.20
2022-09-16T12:41:19.556Z,19.20
2022-09-16T12:43:36.064Z,19.30
2022-09-16T12:45:27.002Z,19.30
2022-09-16T12:47:23.345Z,19.20
2022-09-16T12:49:36.368Z,19.10
2022-09-16T12:51:30.035Z,19.00
2022-09-16T12:53:35.185Z,19.00
2022-09-16T12:55:32.814Z,18.90
2022-09-16T12:57:28.205Z,18.90
2022-09-16T12:59:33.043Z,18.80
2022-09-16T13:01:18.236Z,18.70
2022-09-16T13:02:53.930Z,18.60
2022-09-16T13:04:33.437Z,18.60
2022-09-16T13:06:18.568Z,18.60
2022-09-16T13:07:54.342Z,18.60
2022-09-16T13:09:31.742Z,18.60
2022-09-16T13:13:03.229Z,18.50
2022-09-16T13:14:50.163Z,18.40
2022-09-16T13:16:31.642Z,18.40
2022-09-16T13:18:22.184Z,18.30
2022-09-16T13:19:57.921Z,18.20
2022-09-16T13:21:40.176Z,18.10
2022-09-16T13:23:18.253Z,18.10
2022-09-16T13:24:54.536Z,18.00
2022-09-16T13:26:27.305Z,17.90
2022-09-16T13:28:02.420Z,17.90
2022-09-16T13:29:44.153Z,17.80
2022-09-16T13:31:19.559Z,17.80
2022-09-16T13:33:00.873Z,17.80
2022-09-16T13:34:33.637Z,17.80
2022-09-16T13:36:17.816Z,17.80
2022-09-16T13:37:52.912Z,17.80
2022-09-16T13:39:30.937Z,17.90
2022-09-16T13:41:04.129Z,17.90
2022-09-16T13:42:37.866Z,17.90
2022-09-16T13:44:40.048Z,18.00
2022-09-16T13:46:16.188Z,18.00
2022-09-16T13:47:50.471Z,18.00
2022-09-16T13:49:27.647Z,18.00
2022-09-16T13:51:02.000Z,18.00
2022-09-16T13:52:37.038Z,18.00
2022-09-16T13:54:22.609Z,18.00
2022-09-16T13:56:00.276Z,18.00
2022-09-16T13:57:49.333Z,18.00
2022-09-16T13:59:36.507Z,18.00
2022-09-16T14:01:15.630Z,18.00
2022-09-16T14:03:06.941Z,18.00
2022-09-16T14:05:02.448Z,18.00
2022-09-16T14:06:46.577Z,17.90
2022-09-16T14:08:27.937Z,17.90
2022-09-16T14:10:04.235Z,17.80
2022-09-16T14:11:47.864Z,17.80
2022-09-16T14:13:22.212Z,17.80
2022-09-16T14:14:58.477Z,17.70
2022-09-16T14:16:33.936Z,17.70
2022-09-16T14:18:07.933Z,17.70
2022-09-16T14:19:43.367Z,17.60
2022-09-16T14:21:21.333Z,17.60
2022-09-16T14:23:04.412Z,17.50
2022-09-16T14:24:40.364Z,17.50
2022-09-16T14:26:14.557Z,17.50
2022-09-16T14:27:47.288Z,17.50
2022-09-16T14:29:20.794Z,17.50
2022-09-16T14:30:56.206Z,17.40
2022-09-16T14:32:31.736Z,17.50
2022-09-16T14:34:09.546Z,17.50
2022-09-16T14:35:44.234Z,17.40
2022-09-16T14:37:18.011Z,17.50
2022-09-16T14:38:55.336Z,17.40
2022-09-16T14:40:30.257Z,17.30
2022-09-16T14:42:07.181Z,17.30
2022-09-16T14:43:40.416Z,17.30
2022-09-16T14:45:17.341Z,17.20
2022-09-16T14:46:56.833Z,17.20
2022-09-16T14:48:41.647Z,17.30
2022-09-16T14:50:16.376Z,17.20
2022-09-16T14:51:52.063Z,17.30
2022-09-16T14:53:35.831Z,17.30
2022-09-16T14:55:17.678Z,17.20
2022-09-16T14:56:59.873Z,17.10
2022-09-16T14:58:34.224Z,17.10
2022-09-16T15:00:11.660Z,17.10
2022-09-16T15:01:45.122Z,17.10
2022-09-16T15:03:24.714Z,17.10
2022-09-16T15:05:01.297Z,17.10
2022-09-16T15:06:37.508Z,17.20
2022-09-16T15:08:16.904Z,17.20
2022-09-16T15:09:53.691Z,17.20
2022-09-16T15:11:46.995Z,17.20
2022-09-16T15:13:26.452Z,17.20
2022-09-16T15:14:59.237Z,17.20
2022-09-16T15:16:32.766Z,17.10
2022-09-16T15:18:08.617Z,17.10
2022-09-16T15:19:43.268Z,17.00
2022-09-16T15:21:20.803Z,17.00
2022-09-16T15:22:53.776Z,16.90
2022-09-16T15:24:29.029Z,16.80
2022-09-16T15:26:16.052Z,16.80
2022-09-16T15:27:48.901Z,16.60
2022-09-16T15:29:35.118Z,16.40
2022-09-16T15:31:09.936Z,16.20
2022-09-16T15:32:45.494Z,16.10
2022-09-16T15:34:22.757Z,15.90
2022-09-16T15:35:57.164Z,15.80
2022-09-16T15:37:33.029Z,15.70
2022-09-16T15:39:06.923Z,15.60
2022-09-16T15:40:40.216Z,15.60
2022-09-16T15:42:14.673Z,15.60
2022-09-16T15:43:47.714Z,15.60
2022-09-16T15:45:21.826Z,15.50
2022-09-16T15:46:54.690Z,15.50
2022-09-16T15:48:32.024Z,15.50
2022-09-16T15:50:09.523Z,15.40
2022-09-16T15:51:48.733Z,15.30
2022-09-16T15:53:34.755Z,15.20
2022-09-16T15:55:08.226Z,15.20
2022-09-16T15:56:51.742Z,15.20
2022-09-16T15:58:39.400Z,15.20
2022-09-16T16:00:16.090Z,15.20
2022-09-16T16:01:53.832Z,15.20
2022-09-16T16:03:26.988Z,15.20
2022-09-16T16:05:07.684Z,15.20
2022-09-16T16:06:49.709Z,15.20
2022-09-16T16:08:41.355Z,15.20
2022-09-16T16:10:16.941Z,15.20
2022-09-16T16:11:50.586Z,15.20
2022-09-16T16:13:23.528Z,15.20
2022-09-16T16:14:56.209Z,15.20
2022-09-16T16:16:29.613Z,15.30
2022-09-16T16:18:06.758Z,15.30
2022-09-16T16:19:40.737Z,15.30
2022-09-16T16:21:15.669Z,15.40
2022-09-16T16:22:49.266Z,15.40
2022-09-16T16:24:22.330Z,15.40
2022-09-16T16:25:55.184Z,15.40
2022-09-16T16:27:28.208Z,15.40
2022-09-16T16:29:00.889Z,15.40
2022-09-16T16:30:33.574Z,15.40
2022-09-16T16:32:09.053Z,15.40
2022-09-16T16:33:47.823Z,15.30
2022-09-16T16:35:20.594Z,15.30
2022-09-16T16:36:52.471Z,15.20
2022-09-16T16:38:25.145Z,15.30
2022-09-16T16:39:58.066Z,15.20
2022-09-16T16:41:31.182Z,15.20
2022-09-16T16:43:03.899Z,15.10
2022-09-16T16:44:36.577Z,15.10
2022-09-16T16:46:09.358Z,15.10
2022-09-16T16:47:42.225Z,15.00
2022-09-16T16:49:16.283Z,15.00
2022-09-16T16:50:56.796Z,15.00
2022-09-16T16:52:29.649Z,14.90
2022-09-16T16:54:02.317Z,14.90
2022-09-16T16:55:35.034Z,14.80
2022-09-16T16:57:08.737Z,14.80
2022-09-16T16:58:42.932Z,14.80
2022-09-16T17:00:16.506Z,14.80
2022-09-16T17:01:52.310Z,14.80
2022-09-16T17:03:25.042Z,14.80
2022-09-16T17:04:59.765Z,14.80
2022-09-16T17:06:33.670Z,14.80
2022-09-16T17:08:06.424Z,14.80
2022-09-16T17:09:39.930Z,14.70
2022-09-16T17:11:14.455Z,14.80
2022-09-16T17:12:47.133Z,14.80
2022-09-16T17:14:20.359Z,14.80
2022-09-16T17:15:53.729Z,14.80
2022-09-16T17:17:31.331Z,14.90
2022-09-16T17:19:04.573Z,14.90
2022-09-16T17:20:38.574Z,14.90
2022-09-16T17:22:12.207Z,14.90
2022-09-16T17:23:45.284Z,14.90
2022-09-16T17:25:18.065Z,14.90
2022-09-16T17:26:50.945Z,14.90
2022-09-16T17:28:23.719Z,14.90
2022-09-16T17:29:56.608Z,14.90
2022-09-16T17:31:31.197Z,14.90
2022-09-16T17:33:03.977Z,14.90
2022-09-16T17:34:36.969Z,14.90
2022-09-16T17:36:12.833Z,14.90
2022-09-16T17:37:45.524Z,14.90
2022-09-16T17:39:20.583Z,14.90
2022-09-16T17:40:53.343Z,14.90
2022-09-16T17:42:26.118Z,14.90
2022-09-16T17:44:00.271Z,14.90
2022-09-16T17:45:33.927Z,14.80
2022-09-16T17:47:06.945Z,14.80
2022-09-16T17:48:39.850Z,14.70
2022-09-16T17:50:12.576Z,14.70
2022-09-16T17:51:46.675Z,14.60
2022-09-16T17:53:19.609Z,14.50
2022-09-16T17:54:52.342Z,14.50
2022-09-16T17:56:25.492Z,14.40
2022-09-16T17:57:58.240Z,14.40
2022-09-16T17:59:30.904Z,14.30
2022-09-16T18:01:12.510Z,14.30
2022-09-16T18:02:45.270Z,14.30
2022-09-16T18:04:18.029Z,14.30
2022-09-16T18:05:51.367Z,14.20
2022-09-16T18:07:25.393Z,14.20
2022-09-16T18:09:00.970Z,14.30
2022-09-16T18:10:33.707Z,14.30
2022-09-16T18:12:07.293Z,14.30
2022-09-16T18:13:41.634Z,14.30
2022-09-16T18:15:14.434Z,14.30
2022-09-16T18:16:47.756Z,14.30
2022-09-16T18:18:22.644Z,14.30
2022-09-16T18:19:55.379Z,14.20
2022-09-16T18:21:28.891Z,14.20
2022-09-16T18:23:02.951Z,14.20
2022-09-16T18:24:35.638Z,14.30
2022-09-16T18:26:10.127Z,14.30
2022-09-16T18:27:44.279Z,14.40
2022-09-16T18:29:17.449Z,14.40
2022-09-16T18:31:01.097Z,14.50
2022-09-16T18:32:33.870Z,14.50
2022-09-16T18:34:07.001Z,14.60
2022-09-16T18:35:39.905Z,14.60
2022-09-16T18:37:12.626Z,14.70
2022-09-16T18:38:50.434Z,14.70
2022-09-16T18:40:23.166Z,14.80
2022-09-16T18:41:56.141Z,14.90
2022-09-16T18:43:28.942Z,14.90
2022-09-16T18:45:01.657Z,15.00
2022-09-16T18:46:36.186Z,15.00
2022-09-16T18:48:09.934Z,15.00
2022-09-16T18:49:42.657Z,15.00
2022-09-16T18:51:20.229Z,15.10
2022-09-16T18:52:52.959Z,15.10
2022-09-16T18:54:29.022Z,15.10
2022-09-16T18:56:00.931Z,15.20
2022-09-16T18:57:33.659Z,15.20
2022-09-16T18:59:23.951Z,15.30
2022-09-16T19:00:57.070Z,15.30
2022-09-16T19:02:29.853Z,15.40
2022-09-16T19:04:05.041Z,15.40
2022-09-16T19:05:37.747Z,15.40
2022-09-16T19:07:14.450Z,15.50
2022-09-16T19:08:47.479Z,15.40
2022-09-16T19:10:21.504Z,15.50
2022-09-16T19:11:54.462Z,15.60
2022-09-16T19:13:27.198Z,15.60
2022-09-16T19:14:59.971Z,15.60
2022-09-16T19:16:33.689Z,15.60
2022-09-16T19:18:06.684Z,15.50
2022-09-16T19:19:39.423Z,15.50
2022-09-16T19:21:15.426Z,15.40
2022-09-16T19:22:48.105Z,15.40
2022-09-16T19:24:23.086Z,15.30
2022-09-16T19:26:01.934Z,15.30
2022-09-16T19:27:35.440Z,15.40
2022-09-16T19:29:09.197Z,15.40
2022-09-16T19:30:41.948Z,15.40
2022-09-16T19:32:14.758Z,15.50
2022-09-16T19:33:46.956Z,15.50
2022-09-16T19:35:19.813Z,15.60
2022-09-16T19:36:52.601Z,15.70
2022-09-16T19:38:28.127Z,15.70
2022-09-16T19:40:00.881Z,15.80
2022-09-16T19:41:36.889Z,15.80
2022-09-16T19:43:09.590Z,15.80
2022-09-16T19:44:42.364Z,15.80
2022-09-16T19:46:16.866Z,15.80
2022-09-16T19:47:49.616Z,15.90
2022-09-16T19:49:23.711Z,15.90
2022-09-16T19:50:56.418Z,15.90
2022-09-16T19:52:29.798Z,16.00
2022-09-16T19:54:02.990Z,16.00
2022-09-16T19:55:35.691Z,16.00
2022-09-16T19:57:09.811Z,16.00
2022-09-16T19:58:42.858Z,16.00
2022-09-16T20:00:15.937Z,16.00
2022-09-16T20:01:48.957Z,16.00
2022-09-16T20:03:21.676Z,15.90
2022-09-16T20:04:54.774Z,15.90
2022-09-16T20:06:30.697Z,15.90
2022-09-16T20:08:04.092Z,15.90
2022-09-16T20:09:36.798Z,15.90
2022-09-16T20:11:11.369Z,15.90
2022-09-16T20:12:46.169Z,15.80
2022-09-16T20:14:20.751Z,15.80
2022-09-16T20:15:55.990Z,15.80
2022-09-16T20:17:28.694Z,15.70
2022-09-16T20:19:01.381Z,15.60
2022-09-16T20:20:33.136Z,15.50
2022-09-16T20:22:05.908Z,15.40
2022-09-16T20:23:38.945Z,15.20
2022-09-16T20:25:23.115Z,15.10
2022-09-16T20:26:57.220Z,14.90
2022-09-16T20:28:32.747Z,14.90
2022-09-16T20:30:06.287Z,14.80
2022-09-16T20:31:39.036Z,14.80
2022-09-16T20:33:11.733Z,14.70
2022-09-16T20:34:44.409Z,14.70
2022-09-16T20:36:19.474Z,14.60
2022-09-16T20:37:52.156Z,14.40
2022-09-16T20:39:25.220Z,14.50
2022-09-16T20:40:58.036Z,14.40
2022-09-16T20:42:31.378Z,14.30
2022-09-16T20:44:05.702Z,14.30
2022-09-16T20:45:38.559Z,14.30
2022-09-16T20:47:11.282Z,14.20
2022-09-16T20:48:44.884Z,14.20
2022-09-16T20:50:17.572Z,14.10
2022-09-16T20:51:50.533Z,14.00
2022-09-16T20:53:23.253Z,13.80